sensor_id;sensor_type;location;lat;lon;timestamp;temperature;humidity
2300;DHT22;1158;48.750;9.078;2023-04-24T00:01:46;9.50;99.90
2300;DHT22;1158;48.750;9.078;2023-04-24T00:04:12;9.50;99.90
2300;DHT22;1158;48.750;9.078;2023-04-24T00:06:41;9.60;99.90
2300;DHT22;1158;48.750;9.078;2023-04-24T00:09:08;9.70;99.90
2300;DHT22;1158;48.750;9.078;2023-04-24T00:11:36;9.60;99.90
2300;DHT22;1158;48.750;9.078;2023-04-24T00:14:03;9.60;99.90
2300;DHT22;1158;48.750;9.078;2023-04-24T00:16:29;9.60;99.90
2300;DHT22;1158;48.750;9.078;2023-04-24T00:18:57;9.60;99.90
2300;DHT22;1158;48.750;9.078;2023-04-24T00:21:26;9.60;99.90
2300;DHT22;1158;48.750;9.078;2023-04-24T00:23:53;9.70;99.90
2300;DHT22;1158;48.750;9.078;2023-04-24T00:26:19;9.70;99.90
2300;DHT22;1158;48.750;9.078;2023-04-24T00:28:46;9.70;99.90
2300;DHT22;1158;48.750;9.078;2023-04-24T00:31:13;9.70;99.90
2300;DHT22;1158;48.750;9.078;2023-04-24T00:33:40;9.80;99.90
2300;DHT22;1158;48.750;9.078;2023-04-24T00:36:08;9.80;99.90
2300;DHT22;1158;48.750;9.078;2023-04-24T00:38:35;9.80;99.90
2300;DHT22;1158;48.750;9.078;2023-04-24T00:41:02;9.70;99.90
2300;DHT22;1158;48.750;9.078;2023-04-24T00:43:29;9.70;99.90
2300;DHT22;1158;48.750;9.078;2023-04-24T00:45:55;9.70;99.90
2300;DHT22;1158;48.750;9.078;2023-04-24T00:48:23;9.80;99.90
2300;DHT22;1158;48.750;9.078;2023-04-24T00:50:50;9.80;99.90
2300;DHT22;1158;48.750;9.078;2023-04-24T00:53:18;9.80;99.90
2300;DHT22;1158;48.750;9.078;2023-04-24T00:55:45;9.80;99.90
2300;DHT22;1158;48.750;9.078;2023-04-24T00:58:13;9.80;99.90
2300;DHT22;1158;48.750;9.078;2023-04-24T01:00:40;9.80;99.90
2300;DHT22;1158;48.750;9.078;2023-04-24T01:03:07;9.90;99.90
2300;DHT22;1158;48.750;9.078;2023-04-24T01:05:34;9.80;99.90
2300;DHT22;1158;48.750;9.078;2023-04-24T01:08:01;9.80;99.90
2300;DHT22;1158;48.750;9.078;2023-04-24T01:10:31;9.80;99.90
2300;DHT22;1158;48.750;9.078;2023-04-24T01:12:59;9.80;99.90
2300;DHT22;1158;48.750;9.078;2023-04-24T01:15:26;9.80;99.90
2300;DHT22;1158;48.750;9.078;2023-04-24T01:17:53;9.80;99.90
2300;DHT22;1158;48.750;9.078;2023-04-24T01:20:19;9.80;99.90
2300;DHT22;1158;48.750;9.078;2023-04-24T01:22:48;9.90;99.90
2300;DHT22;1158;48.750;9.078;2023-04-24T01:25:15;9.80;99.90
2300;DHT22;1158;48.750;9.078;2023-04-24T01:27:41;9.80;99.90
2300;DHT22;1158;48.750;9.078;2023-04-24T01:30:10;9.70;99.90
2300;DHT22;1158;48.750;9.078;2023-04-24T01:32:37;9.50;99.90
2300;DHT22;1158;48.750;9.078;2023-04-24T01:35:05;9.40;99.90
2300;DHT22;1158;48.750;9.078;2023-04-24T01:37:32;9.40;99.90
2300;DHT22;1158;48.750;9.078;2023-04-24T01:40:00;9.30;99.90
2300;DHT22;1158;48.750;9.078;2023-04-24T01:42:28;9.20;99.90
2300;DHT22;1158;48.750;9.078;2023-04-24T01:44:57;9.20;99.90
2300;DHT22;1158;48.750;9.078;2023-04-24T01:47:24;9.20;99.90
2300;DHT22;1158;48.750;9.078;2023-04-24T01:49:51;9.20;99.90
2300;DHT22;1158;48.750;9.078;2023-04-24T01:52:18;9.20;99.90
2300;DHT22;1158;48.750;9.078;2023-04-24T01:54:45;9.20;99.90
2300;DHT22;1158;48.750;9.078;2023-04-24T01:57:16;9.20;99.90
2300;DHT22;1158;48.750;9.078;2023-04-24T01:59:43;9.20;99.90
2300;DHT22;1158;48.750;9.078;2023-04-24T02:02:09;9.20;99.90
2300;DHT22;1158;48.750;9.078;2023-04-24T02:04:36;9.20;99.90
2300;DHT22;1158;48.750;9.078;2023-04-24T02:07:03;9.20;99.90
2300;DHT22;1158;48.750;9.078;2023-04-24T02:09:29;9.20;99.90
2300;DHT22;1158;48.750;9.078;2023-04-24T02:11:56;9.20;99.90
2300;DHT22;1158;48.750;9.078;2023-04-24T02:14:24;9.20;99.90
2300;DHT22;1158;48.750;9.078;2023-04-24T02:16:51;9.30;99.90
2300;DHT22;1158;48.750;9.078;2023-04-24T02:19:18;9.30;99.90
2300;DHT22;1158;48.750;9.078;2023-04-24T02:21:45;9.20;99.90
2300;DHT22;1158;48.750;9.078;2023-04-24T02:24:12;9.20;99.90
2300;DHT22;1158;48.750;9.078;2023-04-24T02:26:38;9.20;99.90
2300;DHT22;1158;48.750;9.078;2023-04-24T02:29:05;9.20;99.90
2300;DHT22;1158;48.750;9.078;2023-04-24T02:31:33;9.20;99.90
2300;DHT22;1158;48.750;9.078;2023-04-24T02:34:00;9.20;99.90
2300;DHT22;1158;48.750;9.078;2023-04-24T02:36:26;9.20;99.90
2300;DHT22;1158;48.750;9.078;2023-04-24T02:38:53;9.30;99.90
2300;DHT22;1158;48.750;9.078;2023-04-24T02:41:20;9.30;99.90
2300;DHT22;1158;48.750;9.078;2023-04-24T02:43:46;9.30;99.90
2300;DHT22;1158;48.750;9.078;2023-04-24T02:46:13;9.20;99.90
2300;DHT22;1158;48.750;9.078;2023-04-24T02:48:41;9.20;99.90
2300;DHT22;1158;48.750;9.078;2023-04-24T02:51:08;9.10;99.90
2300;DHT22;1158;48.750;9.078;2023-04-24T02:53:35;9.10;99.90
2300;DHT22;1158;48.750;9.078;2023-04-24T02:56:01;9.00;99.90
2300;DHT22;1158;48.750;9.078;2023-04-24T02:58:28;9.00;99.90
2300;DHT22;1158;48.750;9.078;2023-04-24T03:00:55;9.00;99.90
2300;DHT22;1158;48.750;9.078;2023-04-24T03:03:22;9.00;99.90
2300;DHT22;1158;48.750;9.078;2023-04-24T03:05:52;8.90;99.90
2300;DHT22;1158;48.750;9.078;2023-04-24T03:08:18;8.90;99.90
2300;DHT22;1158;48.750;9.078;2023-04-24T03:10:45;8.90;99.90
2300;DHT22;1158;48.750;9.078;2023-04-24T03:13:12;8.90;99.90
2300;DHT22;1158;48.750;9.078;2023-04-24T03:15:39;8.80;99.90
2300;DHT22;1158;48.750;9.078;2023-04-24T03:18:05;8.80;99.90
2300;DHT22;1158;48.750;9.078;2023-04-24T03:20:32;8.70;99.90
2300;DHT22;1158;48.750;9.078;2023-04-24T03:23:00;8.70;99.90
2300;DHT22;1158;48.750;9.078;2023-04-24T03:25:27;8.70;99.90
2300;DHT22;1158;48.750;9.078;2023-04-24T03:27:53;8.60;99.90
2300;DHT22;1158;48.750;9.078;2023-04-24T03:30:20;8.70;99.90
2300;DHT22;1158;48.750;9.078;2023-04-24T03:32:47;8.60;99.90
2300;DHT22;1158;48.750;9.078;2023-04-24T03:35:14;8.60;99.90
2300;DHT22;1158;48.750;9.078;2023-04-24T03:37:40;8.60;99.90
2300;DHT22;1158;48.750;9.078;2023-04-24T03:40:09;8.60;99.90
2300;DHT22;1158;48.750;9.078;2023-04-24T03:42:36;8.60;99.90
2300;DHT22;1158;48.750;9.078;2023-04-24T03:45:03;8.70;99.90
2300;DHT22;1158;48.750;9.078;2023-04-24T03:47:30;8.70;99.90
2300;DHT22;1158;48.750;9.078;2023-04-24T03:49:56;8.60;99.90
2300;DHT22;1158;48.750;9.078;2023-04-24T03:52:23;8.60;99.90
2300;DHT22;1158;48.750;9.078;2023-04-24T03:54:50;8.50;99.90
2300;DHT22;1158;48.750;9.078;2023-04-24T03:57:18;8.50;99.90
2300;DHT22;1158;48.750;9.078;2023-04-24T03:59:44;8.50;99.90
2300;DHT22;1158;48.750;9.078;2023-04-24T04:02:11;8.40;99.90
2300;DHT22;1158;48.750;9.078;2023-04-24T04:04:38;8.40;99.90
2300;DHT22;1158;48.750;9.078;2023-04-24T04:07:05;8.40;99.90
2300;DHT22;1158;48.750;9.078;2023-04-24T04:09:31;8.40;99.90
2300;DHT22;1158;48.750;9.078;2023-04-24T04:11:59;8.40;99.90
2300;DHT22;1158;48.750;9.078;2023-04-24T04:14:27;8.50;99.90
2300;DHT22;1158;48.750;9.078;2023-04-24T04:16:54;8.60;99.90
2300;DHT22;1158;48.750;9.078;2023-04-24T04:19:21;8.60;99.90
2300;DHT22;1158;48.750;9.078;2023-04-24T04:21:48;8.60;99.90
2300;DHT22;1158;48.750;9.078;2023-04-24T04:24:18;8.70;99.90
2300;DHT22;1158;48.750;9.078;2023-04-24T04:26:46;8.70;99.90
2300;DHT22;1158;48.750;9.078;2023-04-24T04:29:12;8.60;99.90
2300;DHT22;1158;48.750;9.078;2023-04-24T04:31:40;8.60;99.90
2300;DHT22;1158;48.750;9.078;2023-04-24T04:34:07;8.50;99.90
2300;DHT22;1158;48.750;9.078;2023-04-24T04:36:34;8.40;99.90
2300;DHT22;1158;48.750;9.078;2023-04-24T04:39:02;8.30;99.90
2300;DHT22;1158;48.750;9.078;2023-04-24T04:41:29;8.20;99.90
2300;DHT22;1158;48.750;9.078;2023-04-24T04:43:56;8.00;99.90
2300;DHT22;1158;48.750;9.078;2023-04-24T04:46:24;7.90;99.90
2300;DHT22;1158;48.750;9.078;2023-04-24T04:48:52;7.90;99.90
2300;DHT22;1158;48.750;9.078;2023-04-24T04:51:19;7.80;99.90
2300;DHT22;1158;48.750;9.078;2023-04-24T04:53:46;7.70;99.90
2300;DHT22;1158;48.750;9.078;2023-04-24T04:56:12;7.70;99.90
2300;DHT22;1158;48.750;9.078;2023-04-24T04:58:39;7.60;99.90
2300;DHT22;1158;48.750;9.078;2023-04-24T05:01:06;7.50;99.90
2300;DHT22;1158;48.750;9.078;2023-04-24T05:03:33;7.50;99.90
2300;DHT22;1158;48.750;9.078;2023-04-24T05:06:01;7.50;99.90
2300;DHT22;1158;48.750;9.078;2023-04-24T05:08:28;7.50;99.90
2300;DHT22;1158;48.750;9.078;2023-04-24T05:10:55;7.40;99.90
2300;DHT22;1158;48.750;9.078;2023-04-24T05:13:22;7.50;99.90
2300;DHT22;1158;48.750;9.078;2023-04-24T05:15:59;7.50;99.90
2300;DHT22;1158;48.750;9.078;2023-04-24T05:18:27;7.50;99.90
2300;DHT22;1158;48.750;9.078;2023-04-24T05:20:53;7.50;99.90
2300;DHT22;1158;48.750;9.078;2023-04-24T05:23:22;7.50;99.90
2300;DHT22;1158;48.750;9.078;2023-04-24T05:25:49;7.50;99.90
2300;DHT22;1158;48.750;9.078;2023-04-24T05:28:15;7.50;99.90
2300;DHT22;1158;48.750;9.078;2023-04-24T05:30:42;7.50;99.90
2300;DHT22;1158;48.750;9.078;2023-04-24T05:33:09;7.60;99.90
2300;DHT22;1158;48.750;9.078;2023-04-24T05:35:35;7.50;99.90
2300;DHT22;1158;48.750;9.078;2023-04-24T05:38:02;7.60;99.90
2300;DHT22;1158;48.750;9.078;2023-04-24T05:40:30;7.60;99.90
2300;DHT22;1158;48.750;9.078;2023-04-24T05:42:57;7.60;99.90
2300;DHT22;1158;48.750;9.078;2023-04-24T05:45:24;7.70;99.90
2300;DHT22;1158;48.750;9.078;2023-04-24T05:47:50;7.70;99.90
2300;DHT22;1158;48.750;9.078;2023-04-24T05:50:18;7.70;99.90
2300;DHT22;1158;48.750;9.078;2023-04-24T05:52:45;7.70;99.90
2300;DHT22;1158;48.750;9.078;2023-04-24T05:55:12;7.70;99.90
2300;DHT22;1158;48.750;9.078;2023-04-24T05:57:40;7.70;99.90
2300;DHT22;1158;48.750;9.078;2023-04-24T06:00:07;7.70;99.90
2300;DHT22;1158;48.750;9.078;2023-04-24T06:02:34;7.70;99.90
2300;DHT22;1158;48.750;9.078;2023-04-24T06:05:01;7.60;99.90
2300;DHT22;1158;48.750;9.078;2023-04-24T06:07:28;7.60;99.90
2300;DHT22;1158;48.750;9.078;2023-04-24T06:09:55;7.60;99.90
2300;DHT22;1158;48.750;9.078;2023-04-24T06:12:22;7.60;99.90
2300;DHT22;1158;48.750;9.078;2023-04-24T06:14:50;7.80;99.90
2300;DHT22;1158;48.750;9.078;2023-04-24T06:17:16;8.60;99.90
2300;DHT22;1158;48.750;9.078;2023-04-24T06:19:43;10.30;99.90
2300;DHT22;1158;48.750;9.078;2023-04-24T06:22:10;12.30;99.90
2300;DHT22;1158;48.750;9.078;2023-04-24T06:24:37;13.40;99.90
2300;DHT22;1158;48.750;9.078;2023-04-24T06:27:04;14.40;99.90
2300;DHT22;1158;48.750;9.078;2023-04-24T06:29:30;14.80;99.90
2300;DHT22;1158;48.750;9.078;2023-04-24T06:31:58;15.70;99.90
2300;DHT22;1158;48.750;9.078;2023-04-24T06:34:25;15.60;99.90
2300;DHT22;1158;48.750;9.078;2023-04-24T06:36:52;14.90;99.90
2300;DHT22;1158;48.750;9.078;2023-04-24T06:39:19;15.00;99.90
2300;DHT22;1158;48.750;9.078;2023-04-24T06:41:45;15.00;99.90
2300;DHT22;1158;48.750;9.078;2023-04-24T06:44:12;14.30;99.90
2300;DHT22;1158;48.750;9.078;2023-04-24T06:46:40;14.60;99.90
2300;DHT22;1158;48.750;9.078;2023-04-24T06:49:09;16.50;99.90
2300;DHT22;1158;48.750;9.078;2023-04-24T06:51:36;16.10;99.90
2300;DHT22;1158;48.750;9.078;2023-04-24T06:54:02;14.20;99.90
2300;DHT22;1158;48.750;9.078;2023-04-24T06:56:29;12.80;99.90
2300;DHT22;1158;48.750;9.078;2023-04-24T06:58:56;12.40;99.90
2300;DHT22;1158;48.750;9.078;2023-04-24T07:01:22;12.00;99.90
2300;DHT22;1158;48.750;9.078;2023-04-24T07:03:49;12.20;99.90
2300;DHT22;1158;48.750;9.078;2023-04-24T07:06:17;12.50;99.90
2300;DHT22;1158;48.750;9.078;2023-04-24T07:08:46;12.30;99.90
2300;DHT22;1158;48.750;9.078;2023-04-24T07:11:13;12.50;99.90
2300;DHT22;1158;48.750;9.078;2023-04-24T07:13:40;12.10;99.90
2300;DHT22;1158;48.750;9.078;2023-04-24T07:16:07;11.20;99.90
2300;DHT22;1158;48.750;9.078;2023-04-24T07:18:34;11.00;99.90
2300;DHT22;1158;48.750;9.078;2023-04-24T07:21:02;11.00;99.90
2300;DHT22;1158;48.750;9.078;2023-04-24T07:23:30;10.80;99.90
2300;DHT22;1158;48.750;9.078;2023-04-24T07:25:57;10.60;99.90
2300;DHT22;1158;48.750;9.078;2023-04-24T07:28:23;10.80;99.90
2300;DHT22;1158;48.750;9.078;2023-04-24T07:30:51;11.00;99.90
2300;DHT22;1158;48.750;9.078;2023-04-24T07:33:19;11.20;99.90
2300;DHT22;1158;48.750;9.078;2023-04-24T07:35:45;12.20;99.90
2300;DHT22;1158;48.750;9.078;2023-04-24T07:38:12;13.60;99.90
2300;DHT22;1158;48.750;9.078;2023-04-24T07:40:40;14.10;99.90
2300;DHT22;1158;48.750;9.078;2023-04-24T07:43:07;13.30;99.90
2300;DHT22;1158;48.750;9.078;2023-04-24T07:45:34;13.80;99.90
2300;DHT22;1158;48.750;9.078;2023-04-24T07:48:02;14.50;99.90
2300;DHT22;1158;48.750;9.078;2023-04-24T07:50:29;13.60;99.90
2300;DHT22;1158;48.750;9.078;2023-04-24T07:52:56;13.50;99.90
2300;DHT22;1158;48.750;9.078;2023-04-24T07:55:23;13.90;99.90
2300;DHT22;1158;48.750;9.078;2023-04-24T07:57:51;13.30;99.90
2300;DHT22;1158;48.750;9.078;2023-04-24T08:00:18;12.80;99.90
2300;DHT22;1158;48.750;9.078;2023-04-24T08:02:45;13.10;99.90
2300;DHT22;1158;48.750;9.078;2023-04-24T08:05:11;13.70;99.30
2300;DHT22;1158;48.750;9.078;2023-04-24T08:07:38;13.00;99.90
2300;DHT22;1158;48.750;9.078;2023-04-24T08:10:09;12.70;99.90
2300;DHT22;1158;48.750;9.078;2023-04-24T08:12:36;12.80;99.90
2300;DHT22;1158;48.750;9.078;2023-04-24T08:15:05;13.10;99.50
2300;DHT22;1158;48.750;9.078;2023-04-24T08:17:33;13.30;99.90
2300;DHT22;1158;48.750;9.078;2023-04-24T08:20:00;13.50;98.60
2300;DHT22;1158;48.750;9.078;2023-04-24T08:22:28;13.90;99.00
2300;DHT22;1158;48.750;9.078;2023-04-24T08:24:55;14.70;98.00
2300;DHT22;1158;48.750;9.078;2023-04-24T08:27:22;14.30;97.20
2300;DHT22;1158;48.750;9.078;2023-04-24T08:29:49;13.90;96.90
2300;DHT22;1158;48.750;9.078;2023-04-24T08:32:17;14.50;97.00
2300;DHT22;1158;48.750;9.078;2023-04-24T08:34:44;14.60;96.50
2300;DHT22;1158;48.750;9.078;2023-04-24T08:37:11;14.40;96.50
2300;DHT22;1158;48.750;9.078;2023-04-24T08:39:38;14.70;95.00
2300;DHT22;1158;48.750;9.078;2023-04-24T08:42:05;15.00;95.20
2300;DHT22;1158;48.750;9.078;2023-04-24T08:44:33;14.50;96.20
2300;DHT22;1158;48.750;9.078;2023-04-24T08:47:01;13.80;96.20
2300;DHT22;1158;48.750;9.078;2023-04-24T08:49:30;13.90;96.50
2300;DHT22;1158;48.750;9.078;2023-04-24T08:51:57;14.70;96.00
2300;DHT22;1158;48.750;9.078;2023-04-24T08:54:25;15.00;96.00
2300;DHT22;1158;48.750;9.078;2023-04-24T08:56:54;15.10;95.50
2300;DHT22;1158;48.750;9.078;2023-04-24T08:59:23;14.70;95.90
2300;DHT22;1158;48.750;9.078;2023-04-24T09:01:51;13.60;96.10
2300;DHT22;1158;48.750;9.078;2023-04-24T09:04:20;12.70;97.50
2300;DHT22;1158;48.750;9.078;2023-04-24T09:06:51;12.60;98.40
2300;DHT22;1158;48.750;9.078;2023-04-24T09:09:17;12.30;99.00
2300;DHT22;1158;48.750;9.078;2023-04-24T09:11:46;11.50;99.40
2300;DHT22;1158;48.750;9.078;2023-04-24T09:14:19;11.20;99.90
2300;DHT22;1158;48.750;9.078;2023-04-24T09:16:46;11.10;99.90
2300;DHT22;1158;48.750;9.078;2023-04-24T09:19:13;11.10;99.90
2300;DHT22;1158;48.750;9.078;2023-04-24T09:21:39;11.00;99.90
2300;DHT22;1158;48.750;9.078;2023-04-24T09:24:15;10.70;99.90
2300;DHT22;1158;48.750;9.078;2023-04-24T09:26:43;10.60;99.90
2300;DHT22;1158;48.750;9.078;2023-04-24T09:29:14;10.60;99.90
2300;DHT22;1158;48.750;9.078;2023-04-24T09:31:41;10.80;99.90
2300;DHT22;1158;48.750;9.078;2023-04-24T09:34:09;10.90;99.90
2300;DHT22;1158;48.750;9.078;2023-04-24T09:36:37;11.60;99.90
2300;DHT22;1158;48.750;9.078;2023-04-24T09:39:05;12.60;99.90
2300;DHT22;1158;48.750;9.078;2023-04-24T09:41:35;12.80;99.90
2300;DHT22;1158;48.750;9.078;2023-04-24T09:44:12;12.90;98.90
2300;DHT22;1158;48.750;9.078;2023-04-24T09:46:40;12.30;99.60
2300;DHT22;1158;48.750;9.078;2023-04-24T09:49:12;11.80;99.90
2300;DHT22;1158;48.750;9.078;2023-04-24T09:51:39;11.70;99.90
2300;DHT22;1158;48.750;9.078;2023-04-24T09:54:13;11.60;99.90
2300;DHT22;1158;48.750;9.078;2023-04-24T09:56:44;11.10;98.90
2300;DHT22;1158;48.750;9.078;2023-04-24T09:59:12;11.10;98.90
2300;DHT22;1158;48.750;9.078;2023-04-24T10:01:39;11.20;98.90
2300;DHT22;1158;48.750;9.078;2023-04-24T10:04:15;11.20;97.60
2300;DHT22;1158;48.750;9.078;2023-04-24T10:06:43;11.00;97.40
2300;DHT22;1158;48.750;9.078;2023-04-24T10:09:10;11.70;97.20
2300;DHT22;1158;48.750;9.078;2023-04-24T10:11:45;12.90;96.00
2300;DHT22;1158;48.750;9.078;2023-04-24T10:14:17;13.90;95.10
2300;DHT22;1158;48.750;9.078;2023-04-24T10:16:45;14.20;94.80
2300;DHT22;1158;48.750;9.078;2023-04-24T10:19:13;14.70;93.60
2300;DHT22;1158;48.750;9.078;2023-04-24T10:21:41;15.30;93.40
2300;DHT22;1158;48.750;9.078;2023-04-24T10:24:12;15.10;92.40
2300;DHT22;1158;48.750;9.078;2023-04-24T10:26:40;14.60;92.20
2300;DHT22;1158;48.750;9.078;2023-04-24T10:29:08;13.80;92.80
2300;DHT22;1158;48.750;9.078;2023-04-24T10:31:38;13.50;94.00
2300;DHT22;1158;48.750;9.078;2023-04-24T10:34:06;13.60;93.30
2300;DHT22;1158;48.750;9.078;2023-04-24T10:36:33;13.30;93.70
2300;DHT22;1158;48.750;9.078;2023-04-24T10:39:02;12.50;94.70
2300;DHT22;1158;48.750;9.078;2023-04-24T10:41:30;12.40;95.30
2300;DHT22;1158;48.750;9.078;2023-04-24T10:44:08;12.50;95.60
2300;DHT22;1158;48.750;9.078;2023-04-24T10:46:35;12.00;95.50
2300;DHT22;1158;48.750;9.078;2023-04-24T10:49:04;11.80;96.20
2300;DHT22;1158;48.750;9.078;2023-04-24T10:51:45;11.80;96.40
2300;DHT22;1158;48.750;9.078;2023-04-24T10:54:26;11.60;96.10
2300;DHT22;1158;48.750;9.078;2023-04-24T10:56:53;11.70;96.40
2300;DHT22;1158;48.750;9.078;2023-04-24T10:59:26;11.80;96.20
2300;DHT22;1158;48.750;9.078;2023-04-24T11:01:54;11.40;96.60
2300;DHT22;1158;48.750;9.078;2023-04-24T11:04:31;11.10;96.90
2300;DHT22;1158;48.750;9.078;2023-04-24T11:06:58;11.00;97.30
2300;DHT22;1158;48.750;9.078;2023-04-24T11:09:26;10.90;97.80
2300;DHT22;1158;48.750;9.078;2023-04-24T11:12:06;11.00;97.30
2300;DHT22;1158;48.750;9.078;2023-04-24T11:15:00;10.90;97.30
2300;DHT22;1158;48.750;9.078;2023-04-24T11:17:29;11.00;97.10
2300;DHT22;1158;48.750;9.078;2023-04-24T11:20:01;11.20;97.20
2300;DHT22;1158;48.750;9.078;2023-04-24T11:22:30;11.60;97.00
2300;DHT22;1158;48.750;9.078;2023-04-24T11:24:59;12.10;97.10
2300;DHT22;1158;48.750;9.078;2023-04-24T11:27:30;12.60;94.90
2300;DHT22;1158;48.750;9.078;2023-04-24T11:30:02;13.00;95.70
2300;DHT22;1158;48.750;9.078;2023-04-24T11:32:31;13.90;94.20
2300;DHT22;1158;48.750;9.078;2023-04-24T11:35:01;13.10;94.60
2300;DHT22;1158;48.750;9.078;2023-04-24T11:37:33;12.50;95.40
2300;DHT22;1158;48.750;9.078;2023-04-24T11:40:00;11.90;96.20
2300;DHT22;1158;48.750;9.078;2023-04-24T11:42:28;11.60;96.50
2300;DHT22;1158;48.750;9.078;2023-04-24T11:44:55;11.50;96.60
2300;DHT22;1158;48.750;9.078;2023-04-24T11:47:29;11.40;97.00
2300;DHT22;1158;48.750;9.078;2023-04-24T11:49:56;11.50;97.80
2300;DHT22;1158;48.750;9.078;2023-04-24T11:52:23;12.00;97.20
2300;DHT22;1158;48.750;9.078;2023-04-24T11:54:50;12.80;96.50
2300;DHT22;1158;48.750;9.078;2023-04-24T11:57:19;13.80;96.90
2300;DHT22;1158;48.750;9.078;2023-04-24T11:59:46;15.70;94.80
2300;DHT22;1158;48.750;9.078;2023-04-24T12:02:20;15.90;92.40
2300;DHT22;1158;48.750;9.078;2023-04-24T12:04:49;15.20;92.70
2300;DHT22;1158;48.750;9.078;2023-04-24T12:07:16;13.80;93.30
2300;DHT22;1158;48.750;9.078;2023-04-24T12:09:44;12.80;94.60
2300;DHT22;1158;48.750;9.078;2023-04-24T12:12:11;12.30;95.60
2300;DHT22;1158;48.750;9.078;2023-04-24T12:14:43;11.80;95.70
2300;DHT22;1158;48.750;9.078;2023-04-24T12:17:10;11.60;95.80
2300;DHT22;1158;48.750;9.078;2023-04-24T12:19:37;11.30;96.60
2300;DHT22;1158;48.750;9.078;2023-04-24T12:22:06;11.40;96.50
2300;DHT22;1158;48.750;9.078;2023-04-24T12:24:33;11.50;95.90
2300;DHT22;1158;48.750;9.078;2023-04-24T12:26:59;11.70;95.30
2300;DHT22;1158;48.750;9.078;2023-04-24T12:29:27;11.60;96.10
2300;DHT22;1158;48.750;9.078;2023-04-24T12:31:54;11.60;95.60
2300;DHT22;1158;48.750;9.078;2023-04-24T12:34:23;11.60;95.70
2300;DHT22;1158;48.750;9.078;2023-04-24T12:36:50;11.80;95.80
2300;DHT22;1158;48.750;9.078;2023-04-24T12:39:19;12.20;95.70
2300;DHT22;1158;48.750;9.078;2023-04-24T12:41:55;12.20;94.90
2300;DHT22;1158;48.750;9.078;2023-04-24T12:44:30;12.10;95.30
2300;DHT22;1158;48.750;9.078;2023-04-24T12:46:57;11.60;95.40
2300;DHT22;1158;48.750;9.078;2023-04-24T12:49:24;11.40;96.30
2300;DHT22;1158;48.750;9.078;2023-04-24T12:51:51;11.10;97.10
2300;DHT22;1158;48.750;9.078;2023-04-24T12:54:19;10.80;97.90
2300;DHT22;1158;48.750;9.078;2023-04-24T12:56:46;10.50;98.30
2300;DHT22;1158;48.750;9.078;2023-04-24T12:59:12;10.30;99.40
2300;DHT22;1158;48.750;9.078;2023-04-24T13:01:40;10.20;99.20
2300;DHT22;1158;48.750;9.078;2023-04-24T13:04:07;10.10;99.90
2300;DHT22;1158;48.750;9.078;2023-04-24T13:06:34;9.80;99.90
2300;DHT22;1158;48.750;9.078;2023-04-24T13:09:00;9.60;99.90
2300;DHT22;1158;48.750;9.078;2023-04-24T13:11:28;9.50;99.90
2300;DHT22;1158;48.750;9.078;2023-04-24T13:13:55;9.50;99.90
2300;DHT22;1158;48.750;9.078;2023-04-24T13:16:22;9.80;99.90
2300;DHT22;1158;48.750;9.078;2023-04-24T13:18:49;10.10;99.90
2300;DHT22;1158;48.750;9.078;2023-04-24T13:21:16;10.30;99.90
2300;DHT22;1158;48.750;9.078;2023-04-24T13:23:42;11.00;99.90
2300;DHT22;1158;48.750;9.078;2023-04-24T13:26:09;11.20;99.90
2300;DHT22;1158;48.750;9.078;2023-04-24T13:28:37;11.40;99.90
2300;DHT22;1158;48.750;9.078;2023-04-24T13:31:04;11.30;99.90
2300;DHT22;1158;48.750;9.078;2023-04-24T13:33:31;11.00;99.90
2300;DHT22;1158;48.750;9.078;2023-04-24T13:35:58;10.50;99.90
2300;DHT22;1158;48.750;9.078;2023-04-24T13:38:25;10.10;99.90
2300;DHT22;1158;48.750;9.078;2023-04-24T13:40:51;10.10;99.90
2300;DHT22;1158;48.750;9.078;2023-04-24T13:43:18;9.80;99.90
2300;DHT22;1158;48.750;9.078;2023-04-24T13:45:46;9.70;99.90
2300;DHT22;1158;48.750;9.078;2023-04-24T13:48:13;9.60;99.90
2300;DHT22;1158;48.750;9.078;2023-04-24T13:50:41;9.20;99.90
2300;DHT22;1158;48.750;9.078;2023-04-24T13:53:08;8.70;99.90
2300;DHT22;1158;48.750;9.078;2023-04-24T13:55:34;8.80;99.90
2300;DHT22;1158;48.750;9.078;2023-04-24T13:58:01;9.00;99.90
2300;DHT22;1158;48.750;9.078;2023-04-24T14:00:28;9.90;99.90
2300;DHT22;1158;48.750;9.078;2023-04-24T14:02:56;11.30;99.90
2300;DHT22;1158;48.750;9.078;2023-04-24T14:05:23;10.80;99.90
2300;DHT22;1158;48.750;9.078;2023-04-24T14:07:50;10.40;99.90
2300;DHT22;1158;48.750;9.078;2023-04-24T14:10:17;10.10;99.90
2300;DHT22;1158;48.750;9.078;2023-04-24T14:12:44;9.80;99.90
2300;DHT22;1158;48.750;9.078;2023-04-24T14:15:11;9.60;99.90
2300;DHT22;1158;48.750;9.078;2023-04-24T14:17:38;9.50;99.90
2300;DHT22;1158;48.750;9.078;2023-04-24T14:20:07;9.30;99.90
2300;DHT22;1158;48.750;9.078;2023-04-24T14:22:35;9.20;99.90
2300;DHT22;1158;48.750;9.078;2023-04-24T14:25:01;9.40;99.90
2300;DHT22;1158;48.750;9.078;2023-04-24T14:27:28;10.10;99.90
2300;DHT22;1158;48.750;9.078;2023-04-24T14:29:55;11.70;99.90
2300;DHT22;1158;48.750;9.078;2023-04-24T14:32:22;12.90;99.90
2300;DHT22;1158;48.750;9.078;2023-04-24T14:34:49;13.50;99.90
2300;DHT22;1158;48.750;9.078;2023-04-24T14:37:17;14.00;99.90
2300;DHT22;1158;48.750;9.078;2023-04-24T14:39:45;13.30;99.90
2300;DHT22;1158;48.750;9.078;2023-04-24T14:42:11;12.00;99.90
2300;DHT22;1158;48.750;9.078;2023-04-24T14:44:39;11.60;99.90
2300;DHT22;1158;48.750;9.078;2023-04-24T14:47:05;11.40;99.90
2300;DHT22;1158;48.750;9.078;2023-04-24T14:49:32;11.30;99.90
2300;DHT22;1158;48.750;9.078;2023-04-24T14:51:59;11.30;99.90
2300;DHT22;1158;48.750;9.078;2023-04-24T14:54:27;11.90;99.90
2300;DHT22;1158;48.750;9.078;2023-04-24T14:56:54;13.50;99.90
2300;DHT22;1158;48.750;9.078;2023-04-24T14:59:22;14.10;99.90
2300;DHT22;1158;48.750;9.078;2023-04-24T15:01:48;13.30;99.90
2300;DHT22;1158;48.750;9.078;2023-04-24T15:04:17;12.20;99.90
2300;DHT22;1158;48.750;9.078;2023-04-24T15:06:43;12.00;99.90
2300;DHT22;1158;48.750;9.078;2023-04-24T15:09:10;11.90;99.90
2300;DHT22;1158;48.750;9.078;2023-04-24T15:11:38;11.70;99.90
2300;DHT22;1158;48.750;9.078;2023-04-24T15:14:05;11.40;99.90
2300;DHT22;1158;48.750;9.078;2023-04-24T15:16:31;11.10;99.90
2300;DHT22;1158;48.750;9.078;2023-04-24T15:18:58;10.80;99.90
2300;DHT22;1158;48.750;9.078;2023-04-24T15:21:25;10.80;99.90
2300;DHT22;1158;48.750;9.078;2023-04-24T15:23:52;10.70;99.90
2300;DHT22;1158;48.750;9.078;2023-04-24T15:26:19;10.70;99.90
2300;DHT22;1158;48.750;9.078;2023-04-24T15:28:47;10.70;99.90
2300;DHT22;1158;48.750;9.078;2023-04-24T15:31:14;10.50;99.90
2300;DHT22;1158;48.750;9.078;2023-04-24T15:33:40;10.20;99.90
2300;DHT22;1158;48.750;9.078;2023-04-24T15:36:08;9.70;99.90
2300;DHT22;1158;48.750;9.078;2023-04-24T15:38:35;9.40;99.90
2300;DHT22;1158;48.750;9.078;2023-04-24T15:41:02;9.20;99.90
2300;DHT22;1158;48.750;9.078;2023-04-24T15:43:29;9.10;99.90
2300;DHT22;1158;48.750;9.078;2023-04-24T15:46:00;9.10;99.90
2300;DHT22;1158;48.750;9.078;2023-04-24T15:48:27;9.00;99.90
2300;DHT22;1158;48.750;9.078;2023-04-24T15:50:54;8.80;99.90
2300;DHT22;1158;48.750;9.078;2023-04-24T15:53:20;8.90;99.90
2300;DHT22;1158;48.750;9.078;2023-04-24T15:55:47;9.00;99.90
2300;DHT22;1158;48.750;9.078;2023-04-24T15:58:14;9.10;99.90
2300;DHT22;1158;48.750;9.078;2023-04-24T16:00:41;9.30;99.90
2300;DHT22;1158;48.750;9.078;2023-04-24T16:03:09;9.60;99.90
2300;DHT22;1158;48.750;9.078;2023-04-24T16:05:36;9.90;99.90
2300;DHT22;1158;48.750;9.078;2023-04-24T16:08:02;10.10;99.90
2300;DHT22;1158;48.750;9.078;2023-04-24T16:10:29;10.10;99.90
2300;DHT22;1158;48.750;9.078;2023-04-24T16:12:56;9.80;99.90